createdAt,value
2023-01-17T00:01:34.003Z,98008.94
2023-01-17T00:04:19.395Z,98097.97
2023-01-17T00:07:04.640Z,97983.63
2023-01-17T00:09:49.743Z,98036.88
2023-01-17T00:12:16.249Z,97991.47
2023-01-17T00:14:42.794Z,98073.50
2023-01-17T00:17:09.309Z,98067.38
2023-01-17T00:19:54.405Z,98093.56
2023-01-17T00:22:44.693Z,97986.22
2023-01-17T00:25:31.909Z,98097.94
2023-01-17T00:27:58.437Z,98004.53
2023-01-17T00:30:25.514Z,98096.16
2023-01-17T00:32:52.030Z,98097.91
2023-01-17T00:35:20.134Z,98042.03
2023-01-17T00:37:46.793Z,98097.88
2023-01-17T00:40:13.346Z,98131.09
2023-01-17T00:42:39.898Z,98108.47
2023-01-17T00:45:25.138Z,98164.41
2023-01-17T00:48:10.051Z,98126.84
2023-01-17T00:50:55.771Z,98164.31
2023-01-17T00:53:40.657Z,98167.66
2023-01-17T00:56:25.925Z,98141.34
2023-01-17T00:59:13.158Z,98101.00
2023-01-17T01:01:58.522Z,98101.72
2023-01-17T01:04:43.841Z,98211.75
2023-01-17T01:07:29.106Z,98182.81
2023-01-17T01:10:14.287Z,98207.31
2023-01-17T01:12:59.577Z,98226.56
2023-01-17T01:15:44.716Z,98197.69
2023-01-17T01:18:31.058Z,98226.56
2023-01-17T01:21:21.533Z,98133.69
2023-01-17T01:24:06.661Z,98182.59
2023-01-17T01:26:51.861Z,98229.88
2023-01-17T01:29:37.145Z,98154.59
2023-01-17T01:32:22.280Z,98212.50
2023-01-17T01:34:48.858Z,98251.03
2023-01-17T01:37:15.399Z,98230.06
2023-01-17T01:39:41.931Z,98252.84
2023-01-17T01:42:15.684Z,98196.00
2023-01-17T01:44:52.045Z,98192.47
2023-01-17T01:47:26.611Z,98203.78
2023-01-17T01:49:53.299Z,98267.63
2023-01-17T01:52:23.823Z,98265.84
2023-01-17T01:54:57.411Z,98270.25
2023-01-17T01:57:30.052Z,98301.75
2023-01-17T01:59:58.958Z,98308.78
2023-01-17T02:02:27.287Z,98293.84
2023-01-17T02:04:53.973Z,98311.28
2023-01-17T02:07:36.602Z,98303.38
2023-01-17T02:10:04.268Z,98301.69
2023-01-17T02:12:30.983Z,98315.63
2023-01-17T02:14:57.606Z,98242.06
2023-01-17T02:17:30.136Z,98356.81
2023-01-17T02:20:05.674Z,98356.84
2023-01-17T02:22:50.611Z,98367.34
2023-01-17T02:26:02.844Z,98375.19
2023-01-17T02:29:12.308Z,98340.16
2023-01-17T02:31:51.447Z,98357.72
2023-01-17T02:34:33.943Z,98385.75
2023-01-17T02:37:11.934Z,98381.44
2023-01-17T02:39:48.662Z,98338.50
2023-01-17T02:42:19.505Z,98316.63
2023-01-17T02:44:46.231Z,98357.84
2023-01-17T02:47:22.409Z,98347.38
2023-01-17T02:49:49.784Z,98290.47
2023-01-17T02:52:25.310Z,98376.38
2023-01-17T02:55:31.015Z,98382.53
2023-01-17T02:58:00.597Z,98386.91
2023-01-17T03:00:42.323Z,98335.28
2023-01-17T03:03:30.196Z,98375.53
2023-01-17T03:06:11.749Z,98306.19
2023-01-17T03:08:41.289Z,98330.69
2023-01-17T03:11:09.679Z,98384.19
2023-01-17T03:13:37.241Z,98417.31
2023-01-17T03:16:08.606Z,98360.25
2023-01-17T03:18:35.278Z,98328.56
2023-01-17T03:21:01.828Z,98371.41
2023-01-17T03:23:28.396Z,98385.47
2023-01-17T03:25:54.998Z,98424.00
2023-01-17T03:28:21.656Z,98392.31
2023-01-17T03:30:48.298Z,98394.78
2023-01-17T03:33:18.084Z,98385.09
2023-01-17T03:35:46.059Z,98299.06
2023-01-17T03:38:12.582Z,98411.13
2023-01-17T03:40:39.098Z,98372.47
2023-01-17T03:43:05.768Z,98383.81
2023-01-17T03:45:32.347Z,98347.81
2023-01-17T03:47:59.903Z,98423.88
2023-01-17T03:50:26.533Z,98387.78
2023-01-17T03:52:53.138Z,98409.56
2023-01-17T03:55:19.710Z,98399.88
2023-01-17T03:57:46.185Z,98394.53
2023-01-17T04:00:13.292Z,98415.44
2023-01-17T04:02:39.914Z,98429.44
2023-01-17T04:05:06.759Z,98361.88
2023-01-17T04:07:33.331Z,98417.03
2023-01-17T04:09:59.920Z,98441.66
2023-01-17T04:12:26.458Z,98431.31
2023-01-17T04:14:52.969Z,98394.72
2023-01-17T04:17:20.495Z,98418.41
2023-01-17T04:19:47.512Z,98435.03
2023-01-17T04:22:14.162Z,98457.06
2023-01-17T04:24:40.858Z,98451.16
2023-01-17T04:27:07.487Z,98441.47
2023-01-17T04:29:34.052Z,98430.16
2023-01-17T04:32:00.665Z,98444.16
2023-01-17T04:34:27.326Z,98357.28
2023-01-17T04:36:53.885Z,98399.31
2023-01-17T04:39:20.549Z,98368.63
2023-01-17T04:41:47.083Z,98366.06
2023-01-17T04:44:13.661Z,98460.00
2023-01-17T04:46:40.202Z,98356.59
2023-01-17T04:49:06.895Z,98464.53
2023-01-17T04:51:33.576Z,98382.25
2023-01-17T04:54:00.124Z,98458.53
2023-01-17T04:56:26.745Z,98455.03
2023-01-17T04:58:53.241Z,98425.16
2023-01-17T05:01:19.875Z,98367.31
2023-01-17T05:03:46.408Z,98416.41
2023-01-17T05:06:12.962Z,98453.16
2023-01-17T05:08:39.559Z,98450.34
2023-01-17T05:11:06.366Z,98452.84
2023-01-17T05:13:34.151Z,98440.44
2023-01-17T05:16:00.804Z,98438.41
2023-01-17T05:18:27.452Z,98471.66
2023-01-17T05:20:54.004Z,98461.94
2023-01-17T05:23:20.512Z,98374.19
2023-01-17T05:25:47.083Z,98470.94
2023-01-17T05:28:13.966Z,98419.28
2023-01-17T05:30:41.058Z,98485.28
2023-01-17T05:33:09.346Z,98464.31
2023-01-17T05:35:36.580Z,98474.06
2023-01-17T05:38:03.216Z,98414.34
2023-01-17T05:40:32.224Z,98502.00
2023-01-17T05:43:00.512Z,98506.31
2023-01-17T05:45:28.656Z,98444.72
2023-01-17T05:47:56.085Z,98499.94
2023-01-17T05:50:26.048Z,98481.28
2023-01-17T05:53:01.343Z,98429.38
2023-01-17T05:55:29.100Z,98417.03
2023-01-17T05:57:55.920Z,98508.28
2023-01-17T06:00:22.989Z,98483.63
2023-01-17T06:02:50.140Z,98480.06
2023-01-17T06:05:17.024Z,98494.03
2023-01-17T06:07:45.645Z,98424.50
2023-01-17T06:10:17.163Z,98508.72
2023-01-17T06:12:44.893Z,98505.94
2023-01-17T06:15:12.764Z,98492.69
2023-01-17T06:17:39.649Z,98400.38
2023-01-17T06:20:08.156Z,98465.28
2023-01-17T06:22:34.861Z,98509.00
2023-01-17T06:25:01.465Z,98486.16
2023-01-17T06:27:28.149Z,98431.50
2023-01-17T06:29:54.883Z,98480.75
2023-01-17T06:32:21.643Z,98483.09
2023-01-17T06:34:48.257Z,98431.25
2023-01-17T06:37:14.913Z,98518.19
2023-01-17T06:39:41.517Z,98507.56
2023-01-17T06:42:08.110Z,98517.13
2023-01-17T06:44:34.672Z,98532.91
2023-01-17T06:47:01.258Z,98511.94
2023-01-17T06:49:27.770Z,98506.78
2023-01-17T06:51:54.294Z,98511.31
2023-01-17T06:54:20.878Z,98516.00
2023-01-17T06:56:47.456Z,98508.41
2023-01-17T06:59:13.990Z,98512.00
2023-01-17T07:01:41.434Z,98507.88
2023-01-17T07:04:08.265Z,98486.09
2023-01-17T07:06:38.009Z,98406.19
2023-01-17T07:09:04.684Z,98487.72
2023-01-17T07:11:32.393Z,98442.09
2023-01-17T07:13:59.041Z,98523.53
2023-01-17T07:16:25.679Z,98511.28
2023-01-17T07:18:53.205Z,98531.56
2023-01-17T07:21:19.921Z,98507.81
2023-01-17T07:23:48.065Z,98530.56
2023-01-17T07:26:17.178Z,98512.25
2023-01-17T07:28:44.001Z,98551.63
2023-01-17T07:31:10.824Z,98555.09
2023-01-17T07:33:37.578Z,98542.81
2023-01-17T07:36:09.172Z,98533.09
2023-01-17T07:38:35.785Z,98553.44
2023-01-17T07:41:02.595Z,98540.34
2023-01-17T07:43:29.337Z,98469.94
2023-01-17T07:45:55.877Z,98547.25
2023-01-17T07:48:24.446Z,98490.03
2023-01-17T07:50:55.883Z,98555.94
2023-01-17T07:53:24.759Z,98555.88
2023-01-17T07:55:52.078Z,98556.63
2023-01-17T07:58:19.461Z,98544.25
2023-01-17T08:00:46.216Z,98564.44
2023-01-17T08:03:15.295Z,98561.88
2023-01-17T08:05:54.672Z,98482.13
2023-01-17T08:08:21.272Z,98556.97
2023-01-17T08:10:47.801Z,98543.72
2023-01-17T08:13:14.283Z,98571.75
2023-01-17T08:15:41.200Z,98502.38
2023-01-17T08:18:07.705Z,98556.84
2023-01-17T08:20:34.322Z,98559.63
2023-01-17T08:23:00.880Z,98534.94
2023-01-17T08:25:27.639Z,98518.19
2023-01-17T08:27:57.972Z,98495.41
2023-01-17T08:30:25.464Z,98554.19
2023-01-17T08:32:52.096Z,98565.59
2023-01-17T08:35:19.954Z,98574.47
2023-01-17T08:37:47.290Z,98546.38
2023-01-17T08:40:17.134Z,98577.94
2023-01-17T08:42:44.202Z,98575.28
2023-01-17T08:45:12.251Z,98534.78
2023-01-17T08:47:38.868Z,98545.59
2023-01-17T08:50:06.933Z,98559.13
2023-01-17T08:52:33.900Z,98568.25
2023-01-17T08:55:00.440Z,98556.28
2023-01-17T08:57:27.099Z,98550.13
2023-01-17T08:59:53.646Z,98577.78
2023-01-17T09:02:20.361Z,98498.22
2023-01-17T09:04:48.667Z,98574.56
2023-01-17T09:07:17.215Z,98591.16
2023-01-17T09:09:43.793Z,98585.13
2023-01-17T09:12:10.376Z,98586.09
2023-01-17T09:14:37.703Z,98512.59
2023-01-17T09:17:06.747Z,98585.75
2023-01-17T09:19:33.329Z,98590.44
2023-01-17T09:21:59.822Z,98589.75
2023-01-17T09:24:26.375Z,98580.09
2023-01-17T09:26:52.890Z,98567.78
2023-01-17T09:29:19.487Z,98608.19
2023-01-17T09:31:48.823Z,98587.13
2023-01-17T09:34:15.518Z,98602.03
2023-01-17T09:36:42.430Z,98587.09
2023-01-17T09:39:11.252Z,98607.06
2023-01-17T09:41:49.955Z,98622.97
2023-01-17T09:44:19.350Z,98618.47
2023-01-17T09:46:49.960Z,98624.28
2023-01-17T09:49:44.067Z,98621.81
2023-01-17T09:52:20.993Z,98619.75
2023-01-17T09:54:49.313Z,98619.03
2023-01-17T09:57:38.343Z,98633.38
2023-01-17T10:00:32.144Z,98632.16
2023-01-17T10:03:05.114Z,98646.97
2023-01-17T10:05:49.363Z,98636.56
2023-01-17T10:08:40.551Z,98627.47
2023-01-17T10:11:27.040Z,98637.66
2023-01-17T10:14:14.875Z,98634.16
2023-01-17T10:17:06.094Z,98632.13
2023-01-17T10:19:44.399Z,98614.94
2023-01-17T10:22:35.844Z,98634.59
2023-01-17T10:25:08.120Z,98620.81
2023-01-17T10:27:39.104Z,98563.78
2023-01-17T10:30:17.965Z,98616.97
2023-01-17T10:32:48.332Z,98618.63
2023-01-17T10:35:21.623Z,98602.19
2023-01-17T10:37:49.900Z,98540.00
2023-01-17T10:40:24.650Z,98608.41
2023-01-17T10:43:03.160Z,98602.94
2023-01-17T10:45:31.537Z,98545.59
2023-01-17T10:48:09.451Z,98532.47
2023-01-17T10:50:57.395Z,98602.75
2023-01-17T10:53:43.946Z,98600.09
2023-01-17T10:56:15.439Z,98610.03
2023-01-17T10:58:42.050Z,98606.03
2023-01-17T11:01:20.578Z,98538.13
2023-01-17T11:03:51.340Z,98606.31
2023-01-17T11:06:21.834Z,98589.97
2023-01-17T11:08:54.397Z,98488.94
2023-01-17T11:11:23.168Z,98615.38
2023-01-17T11:13:52.056Z,98599.06
2023-01-17T11:16:21.789Z,98596.38
2023-01-17T11:19:16.221Z,98521.22
2023-01-17T11:22:01.186Z,98598.94
2023-01-17T11:24:39.805Z,98589.00
2023-01-17T11:27:22.426Z,98553.53
2023-01-17T11:30:01.416Z,98532.00
2023-01-17T11:32:33.256Z,98589.44
2023-01-17T11:35:25.365Z,98596.94
2023-01-17T11:38:04.539Z,98580.41
2023-01-17T11:40:31.170Z,98597.88
2023-01-17T11:43:18.533Z,98599.88
2023-01-17T11:45:47.175Z,98526.03
2023-01-17T11:48:17.091Z,98582.53
2023-01-17T11:50:55.518Z,98510.38
2023-01-17T11:53:32.766Z,98596.69
2023-01-17T11:56:06.877Z,98597.88
2023-01-17T11:58:36.578Z,98523.88
2023-01-17T12:01:27.009Z,98592.19
2023-01-17T12:04:28.410Z,98588.94
2023-01-17T12:07:10.118Z,98588.94
2023-01-17T12:09:53.352Z,98595.06
2023-01-17T12:13:01.243Z,98583.47
2023-01-17T12:15:39.630Z,98573.34
2023-01-17T12:18:33.498Z,98581.13
2023-01-17T12:21:02.715Z,98591.34
2023-01-17T12:23:48.191Z,98593.78
2023-01-17T12:26:29.820Z,98589.88
2023-01-17T12:29:17.954Z,98588.00
2023-01-17T12:32:06.442Z,98600.16
2023-01-17T12:34:50.792Z,98597.28
2023-01-17T12:37:34.363Z,98601.19
2023-01-17T12:40:10.291Z,98593.53
2023-01-17T12:42:41.165Z,98521.91
2023-01-17T12:45:12.835Z,98593.00
2023-01-17T12:47:45.164Z,98589.56
2023-01-17T12:50:20.020Z,98586.06
2023-01-17T12:53:10.498Z,98567.59
2023-01-17T12:56:15.287Z,98594.38
2023-01-17T12:58:50.219Z,98501.44
2023-01-17T13:01:30.346Z,98578.19
2023-01-17T13:04:25.510Z,98577.75
2023-01-17T13:07:17.505Z,98576.97
2023-01-17T13:09:51.176Z,98559.28
2023-01-17T13:12:21.103Z,98537.31
2023-01-17T13:14:48.296Z,98534.53
2023-01-17T13:17:39.244Z,98479.75
2023-01-17T13:20:41.439Z,98558.94
2023-01-17T13:23:16.513Z,98474.31
2023-01-17T13:25:49.924Z,98489.00
2023-01-17T13:28:35.490Z,98427.72
2023-01-17T13:31:19.888Z,98554.91
2023-01-17T13:33:54.569Z,98561.75
2023-01-17T13:36:35.152Z,98554.09
2023-01-17T13:39:24.080Z,98565.19
2023-01-17T13:41:52.474Z,98548.78
2023-01-17T13:44:21.845Z,98568.13
2023-01-17T13:47:08.034Z,98569.59
2023-01-17T13:49:40.686Z,98582.50
2023-01-17T13:52:12.168Z,98581.22
2023-01-17T13:54:47.280Z,98569.06
2023-01-17T13:57:28.519Z,98593.16
2023-01-17T13:59:58.146Z,98501.69
2023-01-17T14:02:43.417Z,98575.53
2023-01-17T14:05:23.123Z,98581.78
2023-01-17T14:08:16.013Z,98586.19
2023-01-17T14:10:53.190Z,98587.06
2023-01-17T14:13:38.579Z,98550.25
2023-01-17T14:16:31.334Z,98594.97
2023-01-17T14:18:58.102Z,98577.47
2023-01-17T14:21:33.594Z,98594.13
2023-01-17T14:24:15.853Z,98488.13
2023-01-17T14:26:56.520Z,98612.56
2023-01-17T14:29:45.487Z,98611.69
2023-01-17T14:32:15.599Z,98526.63
2023-01-17T14:34:45.160Z,98526.63
2023-01-17T14:37:40.717Z,98612.53
2023-01-17T14:40:26.463Z,98606.31
2023-01-17T14:43:13.798Z,98617.69
2023-01-17T14:45:42.196Z,98587.03
2023-01-17T14:48:20.526Z,98536.31
2023-01-17T14:50:52.201Z,98531.09
2023-01-17T14:53:20.120Z,98534.59
2023-01-17T14:56:12.282Z,98625.72
2023-01-17T14:58:41.769Z,98524.78
2023-01-17T15:01:14.202Z,98602.78
2023-01-17T15:03:53.372Z,98529.88
2023-01-17T15:06:27.729Z,98510.50
2023-01-17T15:08:54.516Z,98598.06
2023-01-17T15:11:25.493Z,98525.19
2023-01-17T15:13:57.291Z,98618.91
2023-01-17T15:16:25.595Z,98630.31
2023-01-17T15:18:53.967Z,98635.47
2023-01-17T15:21:26.350Z,98634.47
2023-01-17T15:23:55.462Z,98630.88
2023-01-17T15:26:25.323Z,98596.50
2023-01-17T15:28:54.671Z,98632.56
2023-01-17T15:31:38.925Z,98634.25
2023-01-17T15:34:07.166Z,98636.75
2023-01-17T15:36:34.429Z,98625.22
2023-01-17T15:39:05.447Z,98601.53
2023-01-17T15:41:37.353Z,98501.28
2023-01-17T15:44:05.804Z,98636.22
2023-01-17T15:46:40.114Z,98542.88
2023-01-17T15:49:19.509Z,98657.59
2023-01-17T15:51:49.367Z,98659.16
2023-01-17T15:54:34.602Z,98650.25
2023-01-17T15:57:06.766Z,98559.44
2023-01-17T15:59:45.496Z,98655.81
2023-01-17T16:02:43.484Z,98644.91
2023-01-17T16:05:27.586Z,98648.09
2023-01-17T16:08:04.158Z,98641.69
2023-01-17T16:10:35.628Z,98529.66
2023-01-17T16:13:04.085Z,98635.69
2023-01-17T16:15:30.846Z,98612.38
2023-01-17T16:18:03.466Z,98533.06
2023-01-17T16:20:47.118Z,98662.97
2023-01-17T16:23:13.939Z,98556.25
2023-01-17T16:25:40.499Z,98664.38
2023-01-17T16:28:07.124Z,98657.94
2023-01-17T16:30:33.971Z,98658.66
2023-01-17T16:33:00.491Z,98665.59
2023-01-17T16:35:32.762Z,98560.63
2023-01-17T16:38:02.187Z,98643.94
2023-01-17T16:40:38.705Z,98567.97
2023-01-17T16:43:05.306Z,98662.72
2023-01-17T16:45:39.754Z,98677.63
2023-01-17T16:48:06.804Z,98662.44
2023-01-17T16:50:33.406Z,98542.63
2023-01-17T16:53:00.216Z,98641.88
2023-01-17T16:55:26.755Z,98678.75
2023-01-17T16:57:56.991Z,98588.66
2023-01-17T17:00:23.982Z,98668.84
2023-01-17T17:02:51.424Z,98693.97
2023-01-17T17:05:18.529Z,98685.03
2023-01-17T17:07:50.742Z,98698.00
2023-01-17T17:10:21.841Z,98600.97
2023-01-17T17:12:48.337Z,98686.34
2023-01-17T17:15:14.880Z,98670.06
2023-01-17T17:17:43.199Z,98710.41
2023-01-17T17:20:13.111Z,98685.66
2023-01-17T17:22:44.101Z,98700.59
2023-01-17T17:25:12.006Z,98717.19
2023-01-17T17:27:38.789Z,98692.41
2023-01-17T17:30:06.198Z,98709.09
2023-01-17T17:32:32.923Z,98720.47
2023-01-17T17:35:00.046Z,98706.34
2023-01-17T17:37:29.009Z,98702.75
2023-01-17T17:39:56.416Z,98723.97
2023-01-17T17:42:23.160Z,98681.50
2023-01-17T17:44:49.649Z,98600.13
2023-01-17T17:47:16.403Z,98711.91
2023-01-17T17:49:43.461Z,98679.34
2023-01-17T17:52:10.006Z,98729.59
2023-01-17T17:54:36.827Z,98646.41
2023-01-17T17:57:03.474Z,98701.72
2023-01-17T17:59:31.136Z,98722.56
2023-01-17T18:01:59.631Z,98713.13
2023-01-17T18:04:26.704Z,98734.28
2023-01-17T18:06:57.926Z,98666.25
2023-01-17T18:09:24.723Z,98727.06
2023-01-17T18:11:51.530Z,98753.19
2023-01-17T18:14:20.955Z,98741.44
2023-01-17T18:16:47.722Z,98754.72
2023-01-17T18:19:19.915Z,98735.50
2023-01-17T18:21:46.787Z,98733.59
2023-01-17T18:24:16.107Z,98736.00
2023-01-17T18:26:51.572Z,98779.94
2023-01-17T18:29:20.723Z,98787.56
2023-01-17T18:31:50.036Z,98779.59
2023-01-17T18:34:29.116Z,98738.16
2023-01-17T18:36:56.635Z,98754.69
2023-01-17T18:39:26.095Z,98686.53
2023-01-17T18:41:53.902Z,98792.59
2023-01-17T18:44:22.232Z,98677.69
2023-01-17T18:46:50.249Z,98686.22
2023-01-17T18:49:19.037Z,98746.06
2023-01-17T18:51:49.060Z,98782.88
2023-01-17T18:54:16.400Z,98803.31
2023-01-17T18:56:43.005Z,98745.91
2023-01-17T18:59:12.358Z,98728.78
2023-01-17T19:01:42.208Z,98681.88
2023-01-17T19:04:10.723Z,98792.94
2023-01-17T19:06:39.974Z,98792.13
2023-01-17T19:09:08.502Z,98733.66
2023-01-17T19:11:36.661Z,98776.75
2023-01-17T19:14:04.221Z,98723.03
2023-01-17T19:16:34.780Z,98803.38
2023-01-17T19:19:04.993Z,98820.13
2023-01-17T19:21:31.632Z,98814.91
2023-01-17T19:23:59.164Z,98775.28
2023-01-17T19:26:27.498Z,98832.63
2023-01-17T19:28:56.207Z,98808.84
2023-01-17T19:31:28.456Z,98832.63
2023-01-17T19:33:57.397Z,98763.72
2023-01-17T19:36:31.126Z,98810.41
2023-01-17T19:39:06.333Z,98738.84
2023-01-17T19:41:35.135Z,98820.91
2023-01-17T19:44:08.045Z,98833.47
2023-01-17T19:46:35.316Z,98843.84
2023-01-17T19:49:02.639Z,98817.16
2023-01-17T19:51:29.830Z,98806.03
2023-01-17T19:53:59.066Z,98742.69
2023-01-17T19:56:26.385Z,98749.66
2023-01-17T19:58:53.439Z,98746.84
2023-01-17T20:01:27.295Z,98737.06
2023-01-17T20:03:57.385Z,98827.34
2023-01-17T20:06:27.743Z,98761.56
2023-01-17T20:08:55.157Z,98835.47
2023-01-17T20:11:23.166Z,98821.28
2023-01-17T20:13:55.594Z,98814.00
2023-01-17T20:16:23.590Z,98817.00
2023-01-17T20:18:50.391Z,98855.19
2023-01-17T20:21:20.292Z,98852.16
2023-01-17T20:23:48.158Z,98847.50
2023-01-17T20:26:19.826Z,98854.72
2023-01-17T20:28:48.822Z,98761.00
2023-01-17T20:31:24.950Z,98846.72
2023-01-17T20:33:54.099Z,98850.19
2023-01-17T20:36:23.491Z,98840.72
2023-01-17T20:38:50.583Z,98765.63
2023-01-17T20:41:25.672Z,98883.47
2023-01-17T20:43:54.669Z,98845.69
2023-01-17T20:46:24.718Z,98888.88
2023-01-17T20:48:56.384Z,98872.31
2023-01-17T20:51:25.622Z,98865.13
2023-01-17T20:53:55.867Z,98813.81
2023-01-17T20:56:23.909Z,98780.03
2023-01-17T20:58:54.492Z,98876.13
2023-01-17T21:01:24.135Z,98761.47
2023-01-17T21:03:53.698Z,98805.53
2023-01-17T21:06:22.719Z,98849.91
2023-01-17T21:08:50.003Z,98788.13
2023-01-17T21:11:20.852Z,98865.91
2023-01-17T21:13:48.912Z,98863.03
2023-01-17T21:16:19.035Z,98865.69
2023-01-17T21:18:47.950Z,98787.91
2023-01-17T21:21:17.741Z,98785.22
2023-01-17T21:23:45.194Z,98816.91
2023-01-17T21:26:14.555Z,98892.03
2023-01-17T21:28:43.195Z,98808.28
2023-01-17T21:31:23.346Z,98866.69
2023-01-17T21:33:53.320Z,98788.97
2023-01-17T21:36:21.875Z,98796.81
2023-01-17T21:38:54.689Z,98843.50
2023-01-17T21:41:24.578Z,98866.25
2023-01-17T21:43:55.792Z,98850.34
2023-01-17T21:46:23.381Z,98902.25
2023-01-17T21:48:49.964Z,98792.50
2023-01-17T21:51:16.564Z,98905.53
2023-01-17T21:53:43.145Z,98849.03
2023-01-17T21:56:31.309Z,98892.31
2023-01-17T21:58:58.090Z,98843.94
2023-01-17T22:01:27.661Z,98876.69
2023-01-17T22:03:59.909Z,98905.81
2023-01-17T22:06:29.573Z,98801.59
2023-01-17T22:08:56.759Z,98897.84
2023-01-17T22:11:25.996Z,98871.66
2023-01-17T22:13:53.206Z,98905.47
2023-01-17T22:16:23.273Z,98865.81
2023-01-17T22:18:50.770Z,98911.81
2023-01-17T22:21:26.140Z,98911.84
2023-01-17T22:23:58.275Z,98815.88
2023-01-17T22:26:27.144Z,98882.13
2023-01-17T22:28:54.784Z,98911.97
2023-01-17T22:31:26.935Z,98913.72
2023-01-17T22:34:02.278Z,98884.53
2023-01-17T22:36:33.416Z,98905.69
2023-01-17T22:39:00.100Z,98918.03
2023-01-17T22:41:29.854Z,98879.16
2023-01-17T22:43:58.823Z,98811.16
2023-01-17T22:46:29.220Z,98804.84
2023-01-17T22:48:56.552Z,98822.31
2023-01-17T22:51:24.709Z,98895.69
2023-01-17T22:53:54.034Z,98827.59
2023-01-17T22:56:23.053Z,98830.19
2023-01-17T22:58:50.180Z,98923.25
2023-01-17T23:01:19.268Z,98934.22
2023-01-17T23:03:47.289Z,98820.03
2023-01-17T23:06:19.271Z,98886.78
2023-01-17T23:08:48.648Z,98926.78
2023-01-17T23:11:40.761Z,98910.97
2023-01-17T23:14:27.911Z,98928.44
2023-01-17T23:17:18.484Z,98924.78
2023-01-17T23:19:52.852Z,98915.06
2023-01-17T23:22:23.018Z,98904.19
2023-01-17T23:24:53.562Z,98929.78
2023-01-17T23:27:54.841Z,98900.50
2023-01-17T23:30:34.467Z,98934.75
2023-01-17T23:33:03.551Z,98927.69
2023-01-17T23:35:32.334Z,98918.84
2023-01-17T23:38:17.495Z,98911.88
2023-01-17T23:41:07.938Z,98938.28
2023-01-17T23:43:35.377Z,98921.75
2023-01-17T23:46:02.454Z,98884.38
2023-01-17T23:48:28.974Z,98936.25
2023-01-17T23:51:09.089Z,98932.88
2023-01-17T23:53:37.280Z,98833.78
2023-01-17T23:56:16.921Z,98930.28
2023-01-17T23:58:43.435Z,98937.22
